Time;durP1;ratioP1;P1;durP2;ratioP2;P2;SDS_P1;SDS_P2;PMS_P1;PMS_P2;Temp;Humidity;BMP_temperature;BMP_pressure;BME280_temperature;BME280_humidity;BME280_pressure;Samples;Min_cycle;Max_cycle;Signal;HPM_P1;HPM_P2
2021/12/06 00:00:22;;;;;;;63.23;32.50;;;;;;;1.03;84.58;99907.63;1779642;79;20998;-74
2021/12/06 00:02:54;;;;;;;58.33;32.13;;;;;;;1.00;84.44;99908.94;1777491;79;20975;-74
2021/12/06 00:05:25;;;;;;;61.87;34.43;;;;;;;0.97;84.52;99905.09;1777020;79;21118;-74
2021/12/06 00:07:53;;;;;;;;;;;;;;;0.90;84.49;99912.43;1779994;80;21438;-74
2021/12/06 00:10:20;;;;;;;68.30;35.27;;;;;;;0.83;84.58;99918.07;1777731;80;20444;-74
2021/12/06 00:12:47;;;;;;;72.43;38.20;;;;;;;0.82;84.84;99924.52;1782199;80;21001;-74
2021/12/06 00:15:15;;;;;;;72.30;37.47;;;;;;;0.80;84.84;99927.52;1782251;80;21010;-74
2021/12/06 00:17:42;;;;;;;70.60;37.80;;;;;;;0.77;84.83;99919.80;1782142;80;21812;-74
2021/12/06 00:20:12;;;;;;;73.50;38.53;;;;;;;0.75;84.62;99920.23;1733964;82;20983;-74
2021/12/06 00:22:41;;;;;;;72.13;37.33;;;;;;;0.68;84.48;99919.42;1782159;79;21995;-74
2021/12/06 00:25:09;;;;;;;77.17;38.03;;;;;;;0.65;84.49;99919.44;1782212;80;21057;-74
2021/12/06 00:27:39;;;;;;;72.57;37.03;;;;;;;0.61;84.55;99926.74;1790438;79;21049;-74
2021/12/06 00:30:12;;;;;;;74.10;37.65;;;;;;;0.59;84.68;99928.50;1814334;78;21104;-73
2021/12/06 00:32:40;;;;;;;76.33;38.73;;;;;;;0.64;84.99;99933.20;1814456;79;21002;-76
2021/12/06 00:35:17;;;;;;;76.87;40.87;;;;;;;0.64;84.95;99930.63;1814362;78;20979;-74
2021/12/06 00:37:45;;;;;;;74.10;39.93;;;;;;;0.61;84.80;99937.06;1813694;78;21061;-74
2021/12/06 00:40:11;;;;;;;80.73;42.53;;;;;;;0.55;84.78;99933.22;1813671;79;21187;-75
2021/12/06 00:42:38;;;;;;;79.25;42.17;;;;;;;0.50;84.73;99943.98;1814736;78;21191;-74
2021/12/06 00:45:08;;;;;;;75.87;40.57;;;;;;;0.47;84.79;99942.27;1814070;78;21472;-74
2021/12/06 00:47:35;;;;;;;80.13;40.87;;;;;;;0.50;84.87;99942.69;1814548;78;21547;-74
2021/12/06 00:50:06;;;;;;;74.60;40.37;;;;;;;0.52;84.79;99944.41;1814323;78;21036;-74
2021/12/06 00:52:34;;;;;;;72.27;39.13;;;;;;;0.51;84.75;99943.14;1814606;79;21277;-74
2021/12/06 00:55:02;;;;;;;74.23;38.67;;;;;;;0.50;84.74;99941.41;1814259;78;21286;-76
2021/12/06 00:57:29;;;;;;;66.00;38.47;;;;;;;0.47;84.67;99943.99;1814377;78;21479;-75
2021/12/06 00:59:56;;;;;;;73.33;40.13;;;;;;;0.44;84.81;99942.28;1791619;79;21080;-76
2021/12/06 01:02:24;;;;;;;76.23;42.97;;;;;;;0.42;84.80;99942.73;1814381;78;21032;-74
2021/12/06 01:04:52;;;;;;;77.70;41.47;;;;;;;0.37;84.73;99947.90;1814306;78;22024;-74
2021/12/06 01:07:19;;;;;;;80.17;41.97;;;;;;;0.36;84.87;99951.76;1814161;78;20980;-75
2021/12/06 01:09:46;;;;;;;73.17;40.00;;;;;;;0.35;84.67;99956.50;1814171;78;21499;-74
2021/12/06 01:12:14;;;;;;;77.27;40.77;;;;;;;0.33;84.79;99956.92;1800679;78;21050;-74
2021/12/06 01:14:41;;;;;;;67.87;38.50;;;;;;;0.36;84.79;99959.48;1792240;79;21001;-74
2021/12/06 01:17:08;;;;;;;75.40;40.20;;;;;;;0.34;84.76;99960.80;1797461;79;21305;-74
2021/12/06 01:19:37;;;;;;;76.50;41.30;;;;;;;0.35;84.83;99962.94;1797565;79;21175;-77
2021/12/06 01:22:20;;;;;;;76.10;40.33;;;;;;;0.38;84.97;99962.93;1797645;79;21006;-74
2021/12/06 01:24:48;;;;;;;85.30;43.87;;;;;;;0.41;85.32;99965.06;1796491;79;21043;-74
2021/12/06 01:30:34;;;;;;;84.07;44.03;;;;;;;0.40;85.20;99981.41;1797970;79;21476;-74
2021/12/06 01:32:23;;;;;;;79.03;42.30;;;;;;;0.41;85.32;99979.24;1774392;79;21445;-74
2021/12/06 01:40:13;;;;;;;80.47;38.90;;;;;;;0.55;85.37;99984.36;1797911;79;20991;-74
2021/12/06 01:42:42;;;;;;;72.53;39.10;;;;;;;0.55;84.85;99989.52;1797413;79;21053;-74
2021/12/06 01:45:14;;;;;;;73.30;41.20;;;;;;;0.53;84.92;99992.99;1775258;79;21129;-74
2021/12/06 01:47:42;;;;;;;81.90;42.67;;;;;;;0.54;85.14;99994.27;1780216;79;20984;-77
2021/12/06 01:50:16;;;;;;;79.73;41.97;;;;;;;0.50;85.05;99987.41;1767166;79;21025;-75
2021/12/06 01:52:52;;;;;;;81.40;42.87;;;;;;;0.47;85.03;99989.97;1765833;81;21022;-74
2021/12/06 01:55:24;;;;;;;77.33;39.67;;;;;;;0.48;85.12;99985.70;1699595;83;21013;-76
2021/12/06 01:57:57;;;;;;;78.33;40.80;;;;;;;0.53;85.33;100000.73;1754755;81;21135;-74
2021/12/06 02:00:46;;;;;;;72.63;38.70;;;;;;;0.58;85.21;99996.39;1758820;79;21054;-74
2021/12/06 02:03:23;;;;;;;73.77;37.63;;;;;;;0.64;85.24;99998.98;1773598;80;21194;-74
2021/12/06 02:05:53;;;;;;;74.67;37.47;;;;;;;0.62;84.72;100005.85;1773946;80;21554;-74
2021/12/06 02:08:23;;;;;;;74.50;39.37;;;;;;;0.57;84.84;100013.59;1773824;80;21032;-74
2021/12/06 02:10:53;;;;;;;79.80;42.13;;;;;;;0.54;84.91;100009.73;1775119;79;21111;-74
2021/12/06 02:13:21;;;;;;;73.62;38.90;;;;;;;0.52;84.87;100011.45;1776707;80;21016;-75
2021/12/06 02:15:52;;;;;;;72.37;37.37;;;;;;;0.48;84.78;100012.77;1777036;80;20997;-74
2021/12/06 02:21:31;;;;;;;69.57;36.33;;;;;;;0.52;84.79;100020.48;1775839;80;21530;-74
2021/12/06 02:24:01;;;;;;;71.77;37.33;;;;;;;0.57;84.89;100021.77;1774940;80;21141;-74
2021/12/06 02:26:29;;;;;;;69.07;36.23;;;;;;;0.58;84.88;100019.20;1777008;80;21029;-75
2021/12/06 02:28:57;;;;;;;62.07;34.93;;;;;;;0.59;84.86;100019.61;1776724;80;21584;-74
2021/12/06 02:31:26;;;;;;;67.73;37.03;;;;;;;0.58;84.83;100022.18;1777063;80;21004;-74
2021/12/06 02:33:55;;;;;;;72.43;38.53;;;;;;;0.59;85.18;100026.06;1778523;80;21076;-74
2021/12/06 02:36:25;;;;;;;77.20;38.67;;;;;;;0.68;85.45;100036.78;1782405;80;21098;-74
2021/12/06 02:38:53;;;;;;;73.02;37.75;;;;;;;0.65;85.01;100033.77;1734049;82;21504;-74
2021/12/06 02:41:22;;;;;;;76.30;37.10;;;;;;;0.64;84.90;100033.80;1781213;80;20993;-74
2021/12/06 02:43:54;;;;;;;72.07;35.43;;;;;;;0.66;84.78;100035.92;1782177;80;21005;-74
2021/12/06 02:46:23;;;;;;;62.63;34.37;;;;;;;0.68;84.87;100034.64;1782397;80;20997;-74
2021/12/06 02:48:51;;;;;;;66.00;34.43;;;;;;;0.73;84.86;100032.47;1734031;82;21134;-74
2021/12/06 02:51:20;;;;;;;64.00;33.93;;;;;;;0.74;84.76;100027.73;1728395;82;21512;-74
2021/12/06 02:53:49;;;;;;;64.23;34.43;;;;;;;0.73;84.46;100030.33;1782467;80;21456;-74
2021/12/06 02:56:34;;;;;;;69.80;36.13;;;;;;;0.71;84.69;100025.16;1782822;80;21530;-74
2021/12/06 02:59:05;;;;;;;69.10;34.90;;;;;;;0.73;84.86;100031.18;1782519;78;21009;-74
2021/12/06 03:01:46;;;;;;;68.60;37.40;;;;;;;0.77;85.13;100034.60;1761611;81;21114;-74
2021/12/06 03:04:15;;;;;;;69.00;36.03;;;;;;;0.74;84.71;100031.59;1814241;78;21265;-73
2021/12/06 03:06:42;;;;;;;66.77;35.80;;;;;;;0.69;84.65;100037.20;1814763;78;21005;-74
2021/12/06 03:09:17;;;;;;;66.53;34.73;;;;;;;0.71;84.68;100037.20;1814399;79;20963;-73
2021/12/06 03:11:49;;;;;;;62.70;34.27;;;;;;;0.72;84.54;100038.91;1814605;78;21478;-73
2021/12/06 03:14:24;;;;;;;64.53;34.00;;;;;;;0.71;84.47;100041.08;1814337;79;21118;-74
2021/12/06 03:16:56;;;;;;;62.70;34.57;;;;;;;0.75;84.73;100040.19;1814269;78;21013;-73
2021/12/06 03:19:24;;;;;;;64.58;34.33;;;;;;;0.78;84.69;100042.35;1814545;78;21026;-73
2021/12/06 03:21:52;;;;;;;63.93;34.73;;;;;;;0.78;84.63;100045.37;1814451;78;20986;-73
2021/12/06 03:24:22;;;;;;;70.93;37.90;;;;;;;0.74;84.70;100051.38;1814358;79;21009;-73
2021/12/06 03:26:50;;;;;;;71.97;36.83;;;;;;;0.73;84.67;100049.67;1814585;78;21519;-73
2021/12/06 03:29:19;;;;;;;73.00;36.70;;;;;;;0.69;84.64;100041.50;1814263;78;21002;-73
2021/12/06 03:31:47;;;;;;;70.00;35.03;;;;;;;0.68;84.63;100046.25;1814590;79;21052;-73
2021/12/06 03:34:18;;;;;;;65.30;36.03;;;;;;;0.70;84.48;100054.84;1814334;78;21044;-73
2021/12/06 03:36:47;;;;;;;70.57;36.40;;;;;;;0.71;84.71;100056.11;1814543;78;21069;-73
2021/12/06 03:39:23;;;;;;;85.57;40.53;;;;;;;0.78;84.74;100066.00;1794610;78;21119;-73
2021/12/06 03:41:56;;;;;;;84.63;42.33;;;;;;;0.77;84.53;100071.57;1782443;80;21509;-73
2021/12/06 03:44:24;;;;;;;74.93;39.50;;;;;;;0.77;84.80;100074.59;1760328;80;22111;-74
2021/12/06 03:46:57;;;;;;;82.93;41.80;;;;;;;0.76;84.68;100078.05;1800646;79;20982;-73
2021/12/06 03:49:25;;;;;;;79.00;39.17;;;;;;;0.72;84.54;100081.06;1814316;78;21013;-73
2021/12/06 03:51:53;;;;;;;79.10;39.07;;;;;;;0.68;84.65;100084.50;1814478;78;21088;-73
2021/12/06 03:54:26;;;;;;;72.23;36.43;;;;;;;0.73;84.90;100086.64;1814248;78;21016;-73
2021/12/06 03:56:56;;;;;;;68.73;35.87;;;;;;;0.78;84.77;100089.23;1792024;79;21014;-73
2021/12/06 03:59:24;;;;;;;69.90;37.07;;;;;;;0.72;84.32;100084.94;1814376;78;21432;-74
2021/12/06 04:01:53;;;;;;;72.27;37.03;;;;;;;0.71;84.46;100084.48;1814538;79;21068;-73
2021/12/06 04:04:24;;;;;;;71.97;37.03;;;;;;;0.72;84.55;100090.50;1814447;78;21113;-73
2021/12/06 04:06:53;;;;;;;73.65;38.25;;;;;;;0.72;84.60;100086.63;1814585;78;20913;-73
2021/12/06 04:09:22;;;;;;;73.00;36.33;;;;;;;0.68;84.64;100085.78;1814340;79;20990;-73
2021/12/06 04:11:50;;;;;;;71.90;38.70;;;;;;;0.65;84.57;100087.94;1810831;78;21421;-74
2021/12/06 04:14:19;;;;;;;77.43;38.67;;;;;;;0.62;84.81;100089.23;1797699;79;21034;-73
2021/12/06 04:16:46;;;;;;;75.03;37.27;;;;;;;0.61;84.77;100087.94;1797535;79;21181;-73
2021/12/06 04:19:15;;;;;;;76.17;38.17;;;;;;;0.61;84.78;100090.52;1797488;79;20998;-74
2021/12/06 04:21:44;;;;;;;69.07;37.37;;;;;;;0.59;84.55;100094.84;1797446;79;21002;-73
2021/12/06 04:24:12;;;;;;;74.43;38.00;;;;;;;0.54;84.48;100090.97;1797564;79;21472;-74
2021/12/06 04:26:41;;;;;;;64.00;34.50;;;;;;;0.56;84.69;100096.14;1797545;79;21018;-74
2021/12/06 04:29:10;;;;;;;65.73;34.90;;;;;;;0.58;84.88;100095.68;1797798;79;21054;-73
2021/12/06 04:31:50;;;;;;;68.27;36.20;;;;;;;0.57;84.72;100096.12;1793895;79;20991;-73
2021/12/06 04:34:17;;;;;;;72.23;37.20;;;;;;;0.60;84.81;100102.56;1722125;83;21414;-73
2021/12/06 04:36:47;;;;;;;75.40;37.87;;;;;;;0.58;84.81;100106.00;1785081;79;21484;-74
2021/12/06 04:39:20;;;;;;;79.30;38.97;;;;;;;0.60;85.12;100110.73;1786308;80;21018;-74
2021/12/06 04:41:49;;;;;;;70.60;39.20;;;;;;;0.59;84.87;100106.45;1786178;80;21112;-74
2021/12/06 04:44:16;;;;;;;72.37;35.17;;;;;;;0.54;84.92;100109.02;1786255;79;21003;-73
2021/12/06 04:46:44;;;;;;;78.93;40.33;;;;;;;0.55;84.86;100113.30;1786138;79;21958;-73
2021/12/06 04:49:12;;;;;;;72.77;36.63;;;;;;;0.57;85.13;100109.02;1786048;79;21022;-73
2021/12/06 04:51:43;;;;;;;69.23;36.63;;;;;;;0.63;85.09;100112.02;1786203;79;20971;-74
2021/12/06 04:54:13;;;;;;;72.20;37.13;;;;;;;0.62;84.76;100115.03;1786413;80;21992;-73
2021/12/06 04:56:48;;;;;;;76.67;37.47;;;;;;;0.65;84.91;100112.88;1786153;80;20926;-73
2021/12/06 04:59:36;;;;;;;71.83;37.00;;;;;;;0.62;84.70;100119.33;1797063;79;20996;-73
2021/12/06 05:02:10;;;;;;;74.53;35.70;;;;;;;0.60;84.88;100123.19;1787313;79;21017;-75
2021/12/06 05:04:43;;;;;;;70.53;36.10;;;;;;;0.59;85.15;100116.33;1697148;83;21485;-73
2021/12/06 05:07:16;;;;;;;70.80;37.33;;;;;;;0.60;85.16;100123.62;1754806;81;21127;-75
2021/12/06 05:09:45;;;;;;;65.77;35.07;;;;;;;0.62;85.49;100124.06;1755091;81;21029;-73
2021/12/06 05:12:18;;;;;;;74.47;36.03;;;;;;;0.70;85.42;100125.34;1759765;80;20974;-73
2021/12/06 05:14:46;;;;;;;75.53;42.83;;;;;;;0.77;85.35;100119.73;1782448;80;21005;-73
2021/12/06 05:17:13;;;;;;;78.83;43.50;;;;;;;0.77;85.09;100123.60;1733920;82;21491;-73
2021/12/06 05:19:40;;;;;;;76.87;41.23;;;;;;;0.77;85.21;100123.17;1782248;79;21186;-73
2021/12/06 05:22:09;;;;;;;93.37;48.83;;;;;;;0.82;85.25;100128.33;1782209;80;21016;-73
2021/12/06 05:24:37;;;;;;;100.70;55.47;;;;;;;0.77;84.81;100124.45;1782102;80;21028;-73
2021/12/06 05:27:05;;;;;;;83.13;43.77;;;;;;;0.76;85.05;100127.06;1782189;80;20994;-74
2021/12/06 05:29:35;;;;;;;88.43;46.97;;;;;;;0.78;85.34;100130.06;1813639;78;21060;-73
2021/12/06 05:32:03;;;;;;;115.50;56.07;;;;;;;0.82;85.52;100127.89;1733592;82;21126;-73
2021/12/06 05:34:38;;;;;;;113.47;50.37;;;;;;;0.84;85.47;100135.21;1810861;79;21003;-76
2021/12/06 05:37:07;;;;;;;76.03;39.07;;;;;;;0.83;85.30;100131.33;1814261;78;20989;-77
2021/12/06 05:39:35;;;;;;;91.92;43.95;;;;;;;0.83;85.02;100133.50;1814614;78;20930;-73
2021/12/06 05:42:07;;;;;;;76.77;43.87;;;;;;;0.82;84.92;100134.34;1814226;79;21512;-73
2021/12/06 05:44:35;;;;;;;74.83;39.00;;;;;;;0.84;84.99;100135.64;1814481;79;21468;-73
2021/12/06 05:47:05;;;;;;;90.80;45.67;;;;;;;0.86;85.00;100140.38;1814194;79;21045;-76
2021/12/06 05:49:33;;;;;;;109.70;50.70;;;;;;;0.84;84.76;100142.95;1814662;79;20998;-74
2021/12/06 05:52:00;;;;;;;93.10;42.47;;;;;;;0.80;85.01;100140.36;1814142;79;21068;-74
2021/12/06 05:54:28;;;;;;;83.13;41.07;;;;;;;0.80;84.93;100142.51;1814539;79;21010;-76
2021/12/06 05:56:56;;;;;;;82.30;40.87;;;;;;;0.80;85.22;100142.95;1814162;78;21127;-73
2021/12/06 05:59:24;;;;;;;82.93;40.50;;;;;;;0.82;85.33;100147.68;1814354;78;20958;-73
2021/12/06 06:01:54;;;;;;;94.37;45.90;;;;;;;0.86;85.23;100154.58;1799382;78;21022;-75
2021/12/06 06:04:22;;;;;;;81.03;39.17;;;;;;;0.91;85.24;100156.69;1734244;82;21038;-73
2021/12/06 06:06:49;;;;;;;69.17;39.43;;;;;;;0.90;84.87;100157.56;1782668;79;20989;-75
2021/12/06 06:09:17;;;;;;;79.63;39.37;;;;;;;0.88;84.81;100160.13;1782473;80;21111;-72
2021/12/06 06:11:44;;;;;;;91.83;41.93;;;;;;;0.91;84.90;100164.87;1799973;79;21244;-73
2021/12/06 06:14:12;;;;;;;73.53;39.67;;;;;;;0.93;84.74;100169.60;1814192;78;20997;-74
2021/12/06 06:16:51;;;;;;;89.30;43.13;;;;;;;0.88;84.79;100173.03;1814330;79;20994;-73
2021/12/06 06:19:21;;;;;;;79.43;39.97;;;;;;;0.89;85.05;100176.50;1814645;78;21014;-72
2021/12/06 06:21:50;;;;;;;87.07;42.07;;;;;;;0.86;84.92;100180.38;1814225;78;21137;-73
2021/12/06 06:24:17;;;;;;;61.27;34.40;;;;;;;0.83;84.90;100185.11;1814285;79;21010;-74
2021/12/06 06:26:45;;;;;;;108.50;48.87;;;;;;;0.82;84.87;100190.25;1814496;78;20986;-71
2021/12/06 06:29:13;;;;;;;75.70;37.97;;;;;;;0.82;84.81;100195.41;1814867;78;21002;-76
2021/12/06 06:31:40;;;;;;;81.70;39.50;;;;;;;0.88;85.20;100197.98;1796949;78;21009;-75
2021/12/06 06:34:08;;;;;;;78.40;39.17;;;;;;;0.91;84.96;100196.69;1744953;82;21122;-76
2021/12/06 06:36:35;;;;;;;85.07;37.93;;;;;;;0.96;84.93;100203.14;1736418;82;21487;-73
2021/12/06 06:39:06;;;;;;;65.27;33.07;;;;;;;0.96;84.93;100207.87;1736765;82;21012;-73
2021/12/06 06:41:35;;;;;;;70.57;35.50;;;;;;;0.96;84.79;100218.62;1736587;82;20993;-72
2021/12/06 06:44:04;;;;;;;85.07;41.60;;;;;;;1.00;85.20;100216.05;1736783;82;21079;-73
2021/12/06 06:46:32;;;;;;;73.13;37.97;;;;;;;1.02;85.12;100216.88;1736753;82;21495;-73
2021/12/06 06:49:00;;;;;;;67.83;37.03;;;;;;;1.09;85.44;100219.05;1736428;82;21455;-73
2021/12/06 06:51:28;;;;;;;79.43;41.00;;;;;;;1.11;85.17;100223.78;1736719;82;21057;-75
2021/12/06 06:53:56;;;;;;;66.10;33.17;;;;;;;1.09;84.98;100225.06;1736915;82;21020;-74
2021/12/06 06:56:23;;;;;;;65.40;32.30;;;;;;;1.06;84.53;100226.36;1736475;82;21482;-75
2021/12/06 06:58:51;;;;;;;57.20;31.80;;;;;;;1.04;84.60;100230.66;1736713;82;21275;-73
2021/12/06 07:01:19;;;;;;;51.83;27.90;;;;;;;1.03;84.47;100228.95;1736721;82;21001;-73
2021/12/06 07:03:50;;;;;;;55.33;29.20;;;;;;;1.07;84.84;100232.38;1736447;82;21012;-72
2021/12/06 07:06:16;;;;;;;56.85;29.42;;;;;;;1.13;84.82;100235.38;1736819;82;21028;-72
2021/12/06 07:08:43;;;;;;;76.50;37.53;;;;;;;1.13;84.54;100233.66;1736650;82;21049;-72
2021/12/06 07:11:10;;;;;;;61.57;31.50;;;;;;;1.09;84.55;100239.26;1736514;82;21089;-73
2021/12/06 07:13:39;;;;;;;63.73;33.60;;;;;;;1.09;84.72;100242.28;1732492;82;20994;-73
2021/12/06 07:16:07;;;;;;;62.73;31.50;;;;;;;1.05;84.71;100241.43;1728737;81;21072;-73
2021/12/06 07:18:35;;;;;;;60.50;31.70;;;;;;;1.08;85.01;100245.70;1729486;81;21072;-73
2021/12/06 07:21:04;;;;;;;61.10;32.47;;;;;;;1.09;84.88;100247.44;1728332;83;21015;-74
2021/12/06 07:23:31;;;;;;;66.43;35.37;;;;;;;1.09;84.71;100247.44;1728347;82;21224;-76
2021/12/06 07:25:58;;;;;;;62.10;34.37;;;;;;;1.06;84.39;100253.46;1728477;82;21055;-77
2021/12/06 07:28:25;;;;;;;66.40;33.73;;;;;;;1.08;84.64;100253.04;1728260;83;21533;-73
2021/12/06 07:30:52;;;;;;;60.10;32.00;;;;;;;1.06;84.52;100251.31;1728409;82;21005;-73
2021/12/06 07:33:19;;;;;;;57.60;31.97;;;;;;;1.09;84.81;100256.04;1728641;83;21482;-73
2021/12/06 07:35:46;;;;;;;80.83;39.97;;;;;;;1.12;84.94;100250.02;1728330;83;21948;-73
2021/12/06 07:38:16;;;;;;;73.17;38.73;;;;;;;1.17;84.76;100257.33;1750633;81;21462;-73
2021/12/06 07:40:44;;;;;;;65.72;32.75;;;;;;;1.15;84.86;100265.50;1758623;81;20964;-76
2021/12/06 07:43:11;;;;;;;66.70;35.87;;;;;;;1.15;84.93;100265.94;1758836;81;20888;-76
2021/12/06 07:45:38;;;;;;;70.90;39.13;;;;;;;1.15;84.98;100264.20;1758664;81;21004;-73
2021/12/06 07:48:06;;;;;;;71.07;38.20;;;;;;;1.12;84.79;100268.09;1758727;81;22073;-78
2021/12/06 07:50:33;;;;;;;63.07;33.10;;;;;;;1.05;84.54;100270.23;1732770;81;21000;-74
2021/12/06 07:53:00;;;;;;;67.00;37.10;;;;;;;0.99;84.59;100272.38;1754897;81;21015;-73
2021/12/06 07:55:31;;;;;;;60.73;34.97;;;;;;;0.98;84.64;100282.28;1758585;81;20989;-73
2021/12/06 07:57:57;;;;;;;60.73;31.37;;;;;;;0.97;84.59;100280.58;1750481;81;21051;-73
2021/12/06 08:00:27;;;;;;;55.57;30.77;;;;;;;0.96;84.70;100281.85;1735580;81;22028;-73
2021/12/06 08:02:56;;;;;;;62.15;33.92;;;;;;;0.99;84.83;100286.58;1732871;81;20943;-73
2021/12/06 08:05:36;;;;;;;57.77;30.70;;;;;;;1.04;85.03;100289.16;1729281;81;21028;-73
2021/12/06 08:08:12;;;;;;;58.77;33.00;;;;;;;1.07;85.07;100287.87;1728309;81;20999;-72
2021/12/06 08:10:49;;;;;;;53.63;31.17;;;;;;;1.05;84.90;100298.22;1729724;81;21086;-76
2021/12/06 08:13:21;;;;;;;57.43;32.20;;;;;;;1.05;85.19;100290.88;1730579;81;21095;-76
2021/12/06 08:15:50;;;;;;;69.83;38.77;;;;;;;1.05;85.16;100296.92;1738498;81;21015;-76
2021/12/06 08:18:17;;;;;;;72.43;38.40;;;;;;;1.05;85.19;100289.19;1761320;81;20998;-75
2021/12/06 08:20:46;;;;;;;95.83;44.37;;;;;;;1.01;84.87;100290.46;1794440;79;21038;-76
2021/12/06 08:23:14;;;;;;;111.50;52.37;;;;;;;1.01;85.15;100296.48;1811423;79;21006;-74
2021/12/06 08:25:43;;;;;;;107.70;48.83;;;;;;;1.01;84.88;100295.19;1810581;79;21325;-77
2021/12/06 08:28:10;;;;;;;119.83;47.73;;;;;;;1.03;85.14;100299.07;1803206;78;21421;-74
2021/12/06 08:30:37;;;;;;;74.50;37.13;;;;;;;1.06;85.06;100295.20;1788438;77;21026;-74
2021/12/06 08:33:07;;;;;;;57.30;30.93;;;;;;;1.05;84.99;100293.05;1782522;79;21563;-77
2021/12/06 08:35:38;;;;;;;58.48;29.85;;;;;;;1.07;84.93;100307.23;1750023;81;21025;-77
2021/12/06 08:38:06;;;;;;;65.63;34.57;;;;;;;1.06;85.09;100301.66;1798970;78;21503;-76
2021/12/06 08:40:34;;;;;;;61.60;36.20;;;;;;;1.05;84.96;100305.07;1782252;79;21001;-80
2021/12/06 08:43:03;;;;;;;60.37;35.37;;;;;;;1.02;85.19;100302.05;1791318;79;20970;-75
2021/12/06 08:45:32;;;;;;;57.43;32.03;;;;;;;1.02;85.18;100302.50;1800231;79;21475;-75
2021/12/06 08:47:59;;;;;;;58.97;31.90;;;;;;;0.99;85.10;100310.23;1799678;79;21009;-75
2021/12/06 08:50:29;;;;;;;56.00;30.17;;;;;;;0.98;85.28;100315.84;1787230;79;21133;-75
2021/12/06 08:52:57;;;;;;;58.87;30.40;;;;;;;1.01;85.36;100311.96;1753180;81;27938;-73
2021/12/06 08:55:25;;;;;;;51.90;29.63;;;;;;;1.03;85.10;100316.70;1800971;77;21253;-74
2021/12/06 08:57:53;;;;;;;68.53;34.80;;;;;;;1.04;85.28;100323.58;1787707;78;21048;-71
2021/12/06 09:00:28;;;;;;;72.63;34.87;;;;;;;1.08;85.38;100321.44;1734517;81;21078;-75
2021/12/06 09:02:56;;;;;;;84.90;40.97;;;;;;;1.08;85.18;100320.16;1782455;79;21099;-73
2021/12/06 09:05:27;;;;;;;68.10;33.37;;;;;;;1.11;85.32;100319.30;1742751;81;21025;-75
2021/12/06 09:07:54;;;;;;;58.67;32.03;;;;;;;1.18;85.57;100317.56;1743244;82;21440;-72
2021/12/06 09:10:22;;;;;;;59.07;30.23;;;;;;;1.23;85.49;100313.27;1781044;80;21377;-72
2021/12/06 09:12:49;;;;;;;52.80;29.33;;;;;;;1.22;85.57;100316.28;1782333;79;21637;-73
2021/12/06 09:15:19;;;;;;;58.87;30.20;;;;;;;1.22;85.20;100322.73;1767109;79;21112;-73
2021/12/06 09:17:48;;;;;;;61.58;33.38;;;;;;;1.14;85.22;100327.03;1699420;83;21056;-73
2021/12/06 09:20:18;;;;;;;65.83;34.77;;;;;;;1.13;85.30;100329.17;1754163;81;21002;-72
2021/12/06 09:22:47;;;;;;;54.10;30.20;;;;;;;1.09;85.34;100333.91;1704498;83;21031;-76
2021/12/06 09:25:16;;;;;;;47.87;28.50;;;;;;;1.10;85.23;100336.48;1755494;80;21504;-72
2021/12/06 09:27:45;;;;;;;55.00;27.80;;;;;;;1.06;84.98;100333.48;1755184;81;21095;-82
2021/12/06 09:30:17;;;;;;;52.93;26.40;;;;;;;1.02;84.96;100339.92;1754720;81;21481;-76
2021/12/06 09:32:44;;;;;;;45.57;23.90;;;;;;;1.02;85.14;100339.48;1753712;81;21014;-83
2021/12/06 09:35:15;;;;;;;45.30;22.67;;;;;;;0.99;84.99;100341.21;1754975;81;21006;-80
2021/12/06 09:37:42;;;;;;;51.23;25.95;;;;;;;0.98;84.97;100344.23;1755618;79;21302;-78
2021/12/06 09:40:14;;;;;;;48.20;24.03;;;;;;;0.95;84.88;100343.38;1698370;84;21132;-76
2021/12/06 09:42:44;;;;;;;47.83;24.17;;;;;;;0.93;85.24;100349.80;1754984;81;20990;-79
2021/12/06 09:45:16;;;;;;;48.00;25.00;;;;;;;0.92;85.40;100349.39;1698374;84;21501;-75
2021/12/06 09:47:50;;;;;;;48.50;24.30;;;;;;;0.95;85.51;100347.24;1755195;81;21038;-81
2021/12/06 09:50:13;;;;;;;52.83;26.15;;;;;;;0.94;85.41;100348.08;1755917;79;21026;-76
2021/12/06 09:52:40;;;;;;;53.70;26.90;;;;;;;0.92;85.41;100344.23;1698320;84;21973;-85
2021/12/06 09:55:08;;;;;;;48.43;24.20;;;;;;;0.93;85.39;100344.64;1754480;81;20947;-86
2021/12/06 09:57:36;;;;;;;43.47;21.87;;;;;;;0.94;85.22;100346.35;1754938;81;21086;-79
2021/12/06 10:00:06;;;;;;;48.20;22.10;;;;;;;0.93;85.12;100345.08;1698413;84;21027;-75
2021/12/06 10:02:34;;;;;;;50.20;23.33;;;;;;;0.95;85.30;100341.64;1754307;81;21271;-82
2021/12/06 10:05:01;;;;;;;48.13;23.70;;;;;;;0.98;85.34;100340.79;1698253;84;21608;-80
2021/12/06 10:07:29;;;;;;;48.93;24.40;;;;;;;0.98;85.18;100345.52;1754903;81;21019;-77
2021/12/06 10:09:57;;;;;;;49.23;25.57;;;;;;;0.96;85.10;100347.66;1755227;81;21059;-78
2021/12/06 10:12:27;;;;;;;52.53;26.57;;;;;;;0.93;85.45;100342.50;1754840;81;21094;-76
2021/12/06 10:14:56;;;;;;;59.47;29.17;;;;;;;0.94;85.44;100341.63;1721010;82;21017;-76
2021/12/06 10:17:24;;;;;;;60.23;29.13;;;;;;;0.93;85.61;100343.36;1782195;79;21519;-74
2021/12/06 10:19:52;;;;;;;62.60;30.20;;;;;;;0.89;85.36;100337.34;1734267;82;21031;-74
2021/12/06 10:22:21;;;;;;;49.70;25.13;;;;;;;0.93;85.45;100348.52;1782161;80;21527;-77
2021/12/06 10:24:56;;;;;;;51.30;26.00;;;;;;;0.91;85.04;100348.08;1782044;80;21029;-76
2021/12/06 10:27:24;;;;;;;52.37;26.27;;;;;;;0.83;84.96;100354.51;1782199;80;20994;-76
2021/12/06 10:30:00;;;;;;;51.00;24.70;;;;;;;0.89;85.32;100359.70;1782183;80;21448;-74
2021/12/06 10:32:30;;;;;;;48.33;24.90;;;;;;;0.85;85.10;100357.52;1782433;78;20997;-74
2021/12/06 10:35:02;;;;;;;49.40;24.57;;;;;;;0.87;85.47;100361.41;1734307;82;21447;-75
2021/12/06 10:37:54;;;;;;;47.27;24.93;;;;;;;0.94;85.62;100361.84;1782352;79;21008;-85
2021/12/06 10:40:32;;;;;;;52.30;25.60;;;;;;;0.93;85.33;100360.56;1782374;80;21002;-81
2021/12/06 10:43:04;;;;;;;54.17;27.60;;;;;;;0.89;85.48;100363.58;1782320;80;21124;-73
2021/12/06 10:45:36;;;;;;;52.90;27.00;;;;;;;0.92;85.64;100364.02;1782314;80;20970;-74
2021/12/06 10:48:21;;;;;;;53.47;27.00;;;;;;;0.89;85.45;100356.69;1743565;81;21428;-74
2021/12/06 10:50:56;;;;;;;52.20;26.87;;;;;;;0.87;85.58;100363.56;1788272;79;21932;-76
2021/12/06 10:53:28;;;;;;;52.10;25.80;;;;;;;0.84;85.07;100362.27;1787488;78;21001;-74
2021/12/06 10:55:58;;;;;;;46.80;24.03;;;;;;;0.79;84.94;100362.68;1785624;79;22315;-74
2021/12/06 10:58:29;;;;;;;45.63;24.00;;;;;;;0.77;85.01;100364.39;1785931;79;21001;-74
2021/12/06 11:01:08;;;;;;;50.63;24.83;;;;;;;0.77;85.20;100364.82;1787491;79;21041;-74
2021/12/06 11:03:48;;;;;;;47.50;23.97;;;;;;;0.79;85.18;100369.13;1773446;78;21025;-75
2021/12/06 11:06:31;;;;;;;51.60;25.02;;;;;;;0.79;85.32;100370.42;1773707;80;21400;-76
2021/12/06 11:09:04;;;;;;;56.10;29.33;;;;;;;0.78;85.43;100370.44;1773425;81;21077;-79
2021/12/06 11:11:36;;;;;;;128.40;64.73;;;;;;;0.79;85.60;100368.28;1773502;80;21040;-84
2021/12/06 11:14:07;;;;;;;161.77;75.27;;;;;;;0.82;85.78;100372.16;1768673;80;21047;-81
2021/12/06 11:16:39;;;;;;;102.13;43.80;;;;;;;0.85;85.78;100374.73;1741663;82;21039;-75
2021/12/06 11:19:10;;;;;;;119.80;46.37;;;;;;;0.84;85.58;100371.73;1741406;82;21023;-75
2021/12/06 11:21:45;;;;;;;109.00;43.60;;;;;;;0.82;85.37;100372.16;1712454;82;21101;-76
2021/12/06 11:24:23;;;;;;;107.07;42.00;;;;;;;0.84;85.42;100370.44;1741576;82;21012;-76
2021/12/06 11:27:07;;;;;;;106.67;41.50;;;;;;;0.87;85.38;100371.73;1741376;82;21008;-76
2021/12/06 11:29:44;;;;;;;75.80;33.17;;;;;;;0.86;85.31;100367.45;1741137;82;21480;-77
2021/12/06 11:32:30;;;;;;;81.57;34.80;;;;;;;0.89;85.36;100368.73;1705077;83;21005;-75
2021/12/06 11:35:12;;;;;;;89.97;39.43;;;;;;;0.87;85.40;100367.43;1763111;80;21098;-73
2021/12/06 11:37:43;;;;;;;115.77;41.93;;;;;;;0.82;85.17;100367.84;1702374;82;21533;-75
2021/12/06 11:40:22;;;;;;;93.17;37.60;;;;;;;0.83;85.52;100367.41;1773215;80;21042;-76
2021/12/06 11:42:59;;;;;;;80.10;34.17;;;;;;;0.81;85.39;100367.42;1711582;82;21016;-76